createdAt,value
2019-01-20T00:01:44.600Z,28.43
2019-01-20T00:04:48.252Z,27.77
2019-01-20T00:07:52.119Z,26.90
2019-01-20T00:10:55.981Z,24.50
2019-01-20T00:13:59.711Z,28.47
2019-01-20T00:17:03.306Z,27.27
2019-01-20T00:20:07.468Z,27.03
2019-01-20T00:23:11.110Z,28.40
2019-01-20T00:26:14.806Z,28.33
2019-01-20T00:29:18.616Z,28.10
2019-01-20T00:32:22.329Z,27.40
2019-01-20T00:35:26.091Z,31.60
2019-01-20T00:38:30.026Z,30.67
2019-01-20T00:41:33.665Z,27.30
2019-01-20T00:44:37.458Z,28.90
2019-01-20T00:47:41.311Z,26.30
2019-01-20T00:50:45.364Z,26.77
2019-01-20T00:53:48.957Z,29.20
2019-01-20T00:56:52.711Z,30.88
2019-01-20T00:59:56.368Z,32.27
2019-01-20T01:03:00.673Z,32.98
2019-01-20T01:06:04.314Z,28.67
2019-01-20T01:09:08.859Z,34.05
2019-01-20T01:12:16.768Z,29.73
2019-01-20T01:15:21.265Z,29.80
2019-01-20T01:18:25.200Z,34.97
2019-01-20T01:21:28.949Z,31.90
2019-01-20T01:24:32.621Z,31.82
2019-01-20T01:27:36.437Z,29.83
2019-01-20T01:30:40.421Z,33.33
2019-01-20T01:33:44.227Z,35.93
2019-01-20T01:36:47.921Z,39.27
2019-01-20T01:39:51.565Z,30.83
2019-01-20T01:42:55.538Z,29.03
2019-01-20T01:45:59.875Z,31.77
2019-01-20T01:49:03.463Z,33.63
2019-01-20T01:52:07.340Z,33.07
2019-01-20T01:55:11.558Z,32.20
2019-01-20T01:58:15.210Z,31.93
2019-01-20T02:01:19.009Z,28.73
2019-01-20T02:04:22.559Z,35.87
2019-01-20T02:07:26.305Z,34.70
2019-01-20T02:10:30.117Z,27.17
2019-01-20T02:13:33.876Z,28.97
2019-01-20T02:16:37.686Z,31.43
2019-01-20T02:19:41.424Z,31.27
2019-01-20T02:22:45.358Z,30.17
2019-01-20T02:25:49.009Z,33.70
2019-01-20T02:28:52.613Z,29.60
2019-01-20T02:31:56.169Z,35.03
2019-01-20T02:34:59.885Z,33.07
2019-01-20T02:38:03.602Z,30.37
2019-01-20T02:41:07.276Z,31.37
2019-01-20T02:44:11.727Z,32.43
2019-01-20T02:47:15.473Z,30.33
2019-01-20T02:50:19.279Z,32.93
2019-01-20T02:53:23.657Z,31.27
2019-01-20T02:56:27.423Z,33.33
2019-01-20T02:59:30.931Z,33.17
2019-01-20T03:02:34.518Z,32.33
2019-01-20T03:05:38.133Z,33.60
2019-01-20T03:08:41.972Z,35.13
2019-01-20T03:11:45.566Z,32.77
2019-01-20T03:14:49.165Z,31.40
2019-01-20T03:17:52.873Z,31.03
2019-01-20T03:20:56.521Z,31.57
2019-01-20T03:24:00.220Z,31.40
2019-01-20T03:27:04.037Z,34.13
2019-01-20T03:30:10.843Z,32.30
2019-01-20T03:33:14.495Z,29.73
2019-01-20T03:36:18.216Z,33.47
2019-01-20T03:39:21.847Z,32.00
2019-01-20T03:42:25.650Z,31.03
2019-01-20T03:45:31.328Z,35.20
2019-01-20T03:48:35.148Z,31.43
2019-01-20T03:51:38.892Z,34.77
2019-01-20T03:54:42.541Z,30.27
2019-01-20T03:57:46.338Z,28.90
2019-01-20T04:00:50.062Z,28.33
2019-01-20T04:03:54.460Z,29.53
2019-01-20T04:06:58.628Z,33.20
2019-01-20T04:10:02.438Z,31.23
2019-01-20T04:13:06.999Z,32.70
2019-01-20T04:16:10.805Z,34.10
2019-01-20T04:19:14.556Z,30.90
2019-01-20T04:22:18.229Z,32.47
2019-01-20T04:25:22.371Z,32.77
2019-01-20T04:28:26.404Z,33.30
2019-01-20T04:31:30.103Z,30.43
2019-01-20T04:34:33.786Z,28.00
2019-01-20T04:37:37.464Z,36.60
2019-01-20T04:40:41.096Z,34.07
2019-01-20T04:43:45.062Z,34.03
2019-01-20T04:46:48.730Z,35.97
2019-01-20T04:49:52.884Z,36.60
2019-01-20T04:52:56.521Z,33.43
2019-01-20T04:56:00.110Z,33.03
2019-01-20T04:59:04.111Z,32.73
2019-01-20T05:02:07.853Z,30.43
2019-01-20T05:05:11.703Z,31.57
2019-01-20T05:08:15.379Z,33.97
2019-01-20T05:11:19.010Z,30.60
2019-01-20T05:14:22.895Z,33.67
2019-01-20T05:17:26.606Z,30.60
2019-01-20T05:20:30.202Z,33.10
2019-01-20T05:23:33.811Z,33.17
2019-01-20T05:26:37.419Z,31.43
2019-01-20T05:29:41.038Z,31.57
2019-01-20T05:32:44.824Z,34.00
2019-01-20T05:35:48.567Z,35.73
2019-01-20T05:38:52.139Z,33.47
2019-01-20T05:41:55.743Z,37.50
2019-01-20T05:44:59.452Z,32.77
2019-01-20T05:48:03.048Z,29.03
2019-01-20T05:51:06.741Z,32.03
2019-01-20T05:54:10.405Z,28.30
2019-01-20T05:57:14.112Z,29.73
2019-01-20T06:00:21.123Z,30.80
2019-01-20T06:03:24.870Z,28.53
2019-01-20T06:06:28.440Z,28.63
2019-01-20T06:09:32.081Z,32.93
2019-01-20T06:12:35.725Z,32.87
2019-01-20T06:15:39.372Z,30.23
2019-01-20T06:18:42.985Z,33.53
2019-01-20T06:21:46.647Z,34.63
2019-01-20T06:24:50.236Z,32.27
2019-01-20T06:27:53.796Z,31.10
2019-01-20T06:30:57.552Z,32.00
2019-01-20T06:34:01.237Z,30.23
2019-01-20T06:37:04.985Z,32.80
2019-01-20T06:40:08.801Z,35.93
2019-01-20T06:43:12.460Z,38.90
2019-01-20T06:46:16.091Z,40.87
2019-01-20T06:49:19.712Z,39.80
2019-01-20T06:52:23.500Z,40.53
2019-01-20T06:55:27.273Z,38.60
2019-01-20T06:58:30.859Z,39.33
2019-01-20T07:01:35.562Z,39.80
2019-01-20T07:04:39.109Z,38.40
2019-01-20T07:07:42.800Z,38.87
2019-01-20T07:10:46.494Z,36.37
2019-01-20T07:13:50.123Z,36.90
2019-01-20T07:16:53.709Z,39.43
2019-01-20T07:19:57.436Z,34.33
2019-01-20T07:23:01.620Z,34.67
2019-01-20T07:26:05.392Z,40.37
2019-01-20T07:29:09.005Z,37.77
2019-01-20T07:32:12.571Z,40.03
2019-01-20T07:35:16.308Z,40.80
2019-01-20T07:38:19.899Z,40.33
2019-01-20T07:41:23.509Z,40.17
2019-01-20T07:44:27.109Z,38.13
2019-01-20T07:47:30.714Z,37.63
2019-01-20T07:50:34.358Z,40.37
2019-01-20T07:53:37.959Z,37.77
2019-01-20T07:56:41.557Z,40.17
2019-01-20T07:59:45.946Z,36.60
2019-01-20T08:02:49.644Z,36.47
2019-01-20T08:05:53.403Z,34.17
2019-01-20T08:08:57.131Z,36.17
2019-01-20T08:12:00.634Z,42.73
2019-01-20T08:15:04.747Z,35.93
2019-01-20T08:18:08.276Z,40.10
2019-01-20T08:21:11.908Z,38.30
2019-01-20T08:24:15.479Z,38.77
2019-01-20T08:27:19.068Z,39.33
2019-01-20T08:30:24.737Z,39.50
2019-01-20T08:33:28.225Z,39.90
2019-01-20T08:36:31.852Z,41.07
2019-01-20T08:39:35.602Z,44.90
2019-01-20T08:42:40.185Z,39.13
2019-01-20T08:46:15.658Z,41.27
2019-01-20T08:49:19.653Z,39.37
2019-01-20T08:52:23.472Z,40.80
2019-01-20T08:55:27.202Z,42.33
2019-01-20T08:58:30.871Z,48.30
2019-01-20T09:01:34.551Z,43.50
2019-01-20T09:04:38.260Z,38.73
2019-01-20T09:07:41.907Z,39.73
2019-01-20T09:10:45.500Z,37.80
2019-01-20T09:13:49.127Z,42.50
2019-01-20T09:16:52.842Z,41.37
2019-01-20T09:19:56.507Z,40.03
2019-01-20T09:23:00.212Z,39.83
2019-01-20T09:26:03.971Z,37.00
2019-01-20T09:29:09.356Z,40.50
2019-01-20T09:32:13.354Z,37.77
2019-01-20T09:35:17.136Z,37.30
2019-01-20T09:38:20.865Z,38.80
2019-01-20T09:41:24.521Z,40.17
2019-01-20T09:44:28.119Z,42.60
2019-01-20T09:47:31.824Z,39.83
2019-01-20T09:50:35.517Z,40.73
2019-01-20T09:53:41.599Z,41.10
2019-01-20T09:56:45.475Z,38.30
2019-01-20T09:59:49.232Z,35.57
2019-01-20T10:02:53.427Z,41.63
2019-01-20T10:06:02.389Z,40.87
2019-01-20T10:09:11.561Z,39.20
2019-01-20T10:12:15.398Z,39.77
2019-01-20T10:15:20.817Z,39.43
2019-01-20T10:18:26.547Z,36.70
2019-01-20T10:21:30.229Z,40.70
2019-01-20T10:24:33.826Z,39.73
2019-01-20T10:27:37.573Z,38.77
2019-01-20T10:30:41.175Z,39.77
2019-01-20T10:33:45.177Z,38.73
2019-01-20T10:36:49.042Z,40.50
2019-01-20T10:39:52.841Z,42.17
2019-01-20T10:42:56.621Z,44.30
2019-01-20T10:56:34.149Z,39.07
2019-01-20T10:59:37.925Z,55.57
2019-01-20T11:02:41.607Z,38.87
2019-01-20T11:05:45.462Z,40.60
2019-01-20T11:08:53.340Z,39.63
2019-01-20T11:11:59.962Z,35.23
2019-01-20T11:15:04.075Z,37.80
2019-01-20T11:18:07.750Z,39.43
2019-01-20T11:21:11.443Z,35.40
2019-01-20T11:24:15.116Z,35.73
2019-01-20T11:27:18.989Z,36.07
2019-01-20T11:30:22.671Z,38.53
2019-01-20T11:33:28.424Z,37.47
2019-01-20T11:36:37.831Z,33.87
2019-01-20T11:39:46.576Z,39.23
2019-01-20T11:42:52.779Z,39.23
2019-01-20T11:45:56.635Z,37.43
2019-01-20T11:49:07.132Z,42.33
2019-01-20T11:52:17.074Z,37.77
2019-01-20T11:55:26.753Z,37.10
2019-01-20T11:58:34.119Z,37.33
2019-01-20T12:01:41.448Z,35.47
2019-01-20T12:04:49.377Z,38.03
2019-01-20T12:07:54.242Z,37.53
2019-01-20T12:10:56.610Z,37.17
2019-01-20T12:14:00.200Z,39.43
2019-01-20T12:17:03.856Z,37.77
2019-01-20T12:20:08.465Z,37.43
2019-01-20T12:23:12.064Z,35.77
2019-01-20T12:26:15.802Z,33.70
2019-01-20T12:29:19.501Z,39.30
2019-01-20T12:32:23.074Z,38.53
2019-01-20T12:35:26.708Z,36.83
2019-01-20T12:38:30.291Z,43.30
2019-01-20T12:41:33.882Z,39.07
2019-01-20T12:44:37.486Z,38.07
2019-01-20T12:47:41.135Z,38.63
2019-01-20T12:50:44.725Z,38.77
2019-01-20T12:53:48.320Z,37.50
2019-01-20T12:56:51.967Z,43.33
2019-01-20T12:59:56.567Z,48.00
2019-01-20T13:03:00.339Z,37.17
2019-01-20T13:06:03.968Z,37.87
2019-01-20T13:09:08.969Z,39.30
2019-01-20T13:12:12.650Z,38.50
2019-01-20T13:15:20.071Z,38.00
2019-01-20T13:18:23.745Z,38.50
2019-01-20T13:21:27.356Z,32.87
2019-01-20T13:24:30.943Z,37.40
2019-01-20T13:27:34.528Z,36.10
2019-01-20T13:30:38.187Z,36.30
2019-01-20T13:33:41.885Z,38.50
2019-01-20T13:36:45.933Z,36.30
2019-01-20T13:39:49.591Z,34.83
2019-01-20T13:42:53.176Z,36.63
2019-01-20T13:45:56.914Z,41.03
2019-01-20T13:49:02.503Z,39.83
2019-01-20T13:52:06.469Z,39.00
2019-01-20T13:55:10.388Z,36.13
2019-01-20T13:58:13.934Z,36.67
2019-01-20T14:01:17.564Z,36.37
2019-01-20T14:04:21.172Z,38.17
2019-01-20T14:07:24.779Z,41.97
2019-01-20T14:10:28.648Z,37.63
2019-01-20T14:13:32.244Z,40.97
2019-01-20T14:16:35.870Z,36.50
2019-01-20T14:19:39.535Z,38.47
2019-01-20T14:22:43.178Z,37.67
2019-01-20T14:25:46.927Z,37.10
2019-01-20T14:28:50.570Z,42.63
2019-01-20T14:31:54.129Z,37.07
2019-01-20T14:34:57.796Z,41.63
2019-01-20T14:38:01.434Z,37.30
2019-01-20T14:41:05.097Z,38.57
2019-01-20T14:44:10.737Z,38.77
2019-01-20T14:47:15.454Z,39.70
2019-01-20T14:50:22.064Z,37.67
2019-01-20T14:53:25.722Z,40.13
2019-01-20T14:56:29.382Z,39.67
2019-01-20T14:59:33.054Z,38.63
2019-01-20T15:02:36.663Z,40.37
2019-01-20T15:05:40.346Z,39.40
2019-01-20T15:08:43.945Z,37.60
2019-01-20T15:11:47.557Z,38.83
2019-01-20T15:14:51.191Z,39.80
2019-01-20T15:17:54.821Z,40.10
2019-01-20T15:20:58.404Z,37.53
2019-01-20T15:24:01.988Z,42.47
2019-01-20T15:27:05.643Z,42.17
2019-01-20T15:30:14.071Z,44.10
2019-01-20T15:33:17.632Z,42.83
2019-01-20T15:36:21.135Z,44.60
2019-01-20T15:39:24.746Z,41.27
2019-01-20T15:42:28.372Z,43.10
2019-01-20T15:45:31.937Z,40.17
2019-01-20T15:52:05.911Z,37.80
2019-01-20T15:55:09.560Z,41.07
2019-01-20T15:58:13.270Z,38.77
2019-01-20T16:01:16.896Z,37.20
2019-01-20T16:04:24.071Z,39.20
2019-01-20T16:07:24.118Z,39.23
2019-01-20T16:10:28.233Z,40.43
2019-01-20T16:13:31.942Z,48.03
2019-01-20T16:16:35.582Z,45.40
2019-01-20T16:19:41.803Z,46.30
2019-01-20T16:22:46.419Z,40.27
2019-01-20T16:25:51.725Z,44.70
2019-01-20T16:28:55.418Z,48.63
2019-01-20T16:31:59.122Z,46.83
2019-01-20T16:35:02.782Z,42.10
2019-01-20T16:38:08.021Z,41.80
2019-01-20T16:41:11.727Z,38.50
2019-01-20T16:44:15.505Z,48.20
2019-01-20T16:47:19.133Z,44.70
2019-01-20T16:50:23.754Z,44.67
2019-01-20T16:53:27.321Z,43.33
2019-01-20T16:56:31.118Z,42.97
2019-01-20T16:59:34.817Z,43.40
2019-01-20T17:02:38.436Z,38.93
2019-01-20T17:05:42.115Z,41.60
2019-01-20T17:08:45.723Z,44.47
2019-01-20T17:11:49.288Z,43.83
2019-01-20T17:14:52.898Z,55.47
2019-01-20T17:17:56.613Z,51.50
2019-01-20T17:24:38.071Z,51.97
2019-01-20T17:31:15.455Z,49.17
2019-01-20T17:34:26.317Z,47.20
2019-01-20T17:37:32.627Z,39.60
2019-01-20T17:40:36.388Z,38.57
2019-01-20T17:43:41.633Z,35.33
2019-01-20T17:46:47.137Z,37.20
2019-01-20T17:49:53.654Z,30.53
2019-01-20T17:52:58.449Z,38.63
2019-01-20T17:56:02.101Z,36.47
2019-01-20T17:59:05.785Z,37.50
2019-01-20T18:02:09.566Z,41.37
2019-01-20T18:05:14.125Z,51.13
2019-01-20T18:08:17.883Z,38.63
2019-01-20T18:11:21.471Z,46.87
2019-01-20T18:14:25.638Z,38.87
2019-01-20T18:17:31.347Z,42.90
2019-01-20T18:20:34.983Z,34.83
2019-01-20T18:23:39.606Z,36.70
2019-01-20T18:26:43.232Z,37.57
2019-01-20T18:29:47.402Z,36.03
2019-01-20T18:32:52.984Z,33.57
2019-01-20T18:35:56.618Z,31.40
2019-01-20T18:39:00.245Z,31.13
2019-01-20T18:42:03.940Z,30.97
2019-01-20T18:45:08.619Z,31.87
2019-01-20T18:48:12.242Z,32.37
2019-01-20T18:51:15.897Z,33.03
2019-01-20T18:54:19.503Z,30.90
2019-01-20T18:57:23.110Z,59.77
2019-01-20T19:00:31.152Z,44.70
2019-01-20T19:03:36.093Z,37.00
2019-01-20T19:06:39.785Z,30.27
2019-01-20T19:09:43.534Z,34.83
2019-01-20T19:12:47.331Z,33.27
2019-01-20T19:15:50.931Z,32.53
2019-01-20T19:18:54.722Z,34.00
2019-01-20T19:22:00.346Z,32.00
2019-01-20T19:25:04.117Z,32.57
2019-01-20T19:35:18.444Z,31.87
2019-01-20T19:38:22.187Z,30.07
2019-01-20T19:41:25.720Z,34.90
2019-01-20T19:44:29.322Z,32.90
2019-01-20T19:47:32.950Z,35.07
2019-01-20T19:50:36.775Z,37.33
2019-01-20T19:53:40.496Z,32.53
2019-01-20T19:56:44.174Z,42.17
2019-01-20T19:59:47.902Z,35.50
2019-01-20T20:02:51.646Z,33.07
2019-01-20T20:05:55.271Z,36.53
2019-01-20T20:08:58.853Z,34.83
2019-01-20T20:12:02.449Z,35.67
2019-01-20T20:15:08.280Z,36.13
2019-01-20T20:18:12.011Z,37.83
2019-01-20T20:21:15.749Z,32.63
2019-01-20T20:24:25.298Z,32.77
2019-01-20T20:27:23.031Z,35.87
2019-01-20T20:30:29.043Z,37.80
2019-01-20T20:33:33.267Z,34.30
2019-01-20T20:36:38.746Z,32.37
2019-01-20T20:39:42.349Z,35.07
2019-01-20T20:42:46.065Z,34.77
2019-01-20T20:45:49.591Z,33.43
2019-01-20T20:48:53.222Z,35.27
2019-01-20T20:51:56.906Z,34.37
2019-01-20T20:55:01.523Z,35.60
2019-01-20T20:58:05.422Z,30.70
2019-01-20T21:01:10.019Z,35.93
2019-01-20T21:04:13.594Z,40.93
2019-01-20T21:07:17.201Z,34.37
2019-01-20T21:10:23.872Z,35.77
2019-01-20T21:13:27.538Z,35.03
2019-01-20T21:16:37.669Z,35.27
2019-01-20T21:19:34.875Z,36.23
2019-01-20T21:22:38.637Z,35.20
2019-01-20T21:25:43.165Z,37.50
2019-01-20T21:28:47.720Z,32.40
2019-01-20T21:31:51.190Z,35.87
2019-01-20T21:34:57.845Z,36.00
2019-01-20T21:38:07.408Z,34.90
2019-01-20T21:41:12.667Z,32.77
2019-01-20T21:44:15.077Z,34.17
2019-01-20T21:47:18.616Z,32.43
2019-01-20T21:50:24.494Z,32.03
2019-01-20T21:53:28.047Z,33.27
2019-01-20T21:56:36.502Z,31.83
2019-01-20T21:59:40.193Z,33.47
2019-01-20T22:02:45.046Z,32.77
2019-01-20T22:05:48.913Z,35.00
2019-01-20T22:08:52.551Z,37.10
2019-01-20T22:11:56.217Z,34.17
2019-01-20T22:14:59.814Z,30.50
2019-01-20T22:21:12.341Z,31.03
2019-01-20T22:24:16.923Z,33.93
2019-01-20T22:27:20.517Z,34.17
2019-01-20T22:30:26.040Z,34.10
2019-01-20T22:33:30.566Z,34.37
2019-01-20T22:36:34.267Z,31.90
2019-01-20T22:39:37.890Z,32.67
2019-01-20T22:42:41.487Z,40.70
2019-01-20T22:45:45.201Z,33.27
2019-01-20T22:48:48.865Z,33.03
2019-01-20T22:55:23.624Z,33.03
2019-01-20T22:58:27.242Z,35.33
2019-01-20T23:01:30.890Z,32.43
2019-01-20T23:04:34.586Z,33.77
2019-01-20T23:07:38.173Z,35.77
2019-01-20T23:10:41.818Z,35.90
2019-01-20T23:13:45.545Z,35.97
2019-01-20T23:16:49.424Z,30.97
2019-01-20T23:19:53.140Z,30.97
2019-01-20T23:22:56.713Z,31.60
2019-01-20T23:26:00.357Z,31.53
2019-01-20T23:29:04.201Z,30.20
2019-01-20T23:32:07.864Z,33.07
2019-01-20T23:35:11.515Z,29.07
2019-01-20T23:38:15.282Z,33.17
2019-01-20T23:41:18.956Z,31.80
2019-01-20T23:44:23.039Z,30.27
2019-01-20T23:47:26.687Z,32.70
2019-01-20T23:50:30.285Z,30.83
2019-01-20T23:53:33.987Z,32.90
2019-01-20T23:56:37.668Z,31.30
2019-01-20T23:59:41.258Z,30.10
